createdAt,value
2023-04-26T00:01:58.775Z,101744.19
2023-04-26T00:04:25.636Z,101741.69
2023-04-26T00:06:52.405Z,101750.84
2023-04-26T00:09:22.051Z,101752.72
2023-04-26T00:11:49.274Z,101741.16
2023-04-26T00:14:15.884Z,101746.41
2023-04-26T00:16:42.524Z,101754.28
2023-04-26T00:19:10.018Z,101748.16
2023-04-26T00:21:37.209Z,101752.00
2023-04-26T00:24:05.661Z,101751.56
2023-04-26T00:26:34.290Z,101756.03
2023-04-26T00:29:02.022Z,101749.03
2023-04-26T00:31:28.834Z,101751.44
2023-04-26T00:33:55.883Z,101740.38
2023-04-26T00:36:22.656Z,101751.84
2023-04-26T00:38:49.337Z,101745.13
2023-04-26T00:41:16.044Z,101748.78
2023-04-26T00:43:42.613Z,101750.31
2023-04-26T00:46:09.716Z,101751.88
2023-04-26T00:48:37.441Z,101745.63
2023-04-26T00:51:05.757Z,101745.75
2023-04-26T00:53:34.420Z,101741.78
2023-04-26T00:56:02.055Z,101737.25
2023-04-26T00:58:29.776Z,101746.69
2023-04-26T01:00:56.803Z,101740.44
2023-04-26T01:03:24.106Z,101745.88
2023-04-26T01:05:51.116Z,101743.38
2023-04-26T01:08:20.836Z,101743.66
2023-04-26T01:10:48.886Z,101743.16
2023-04-26T01:13:16.497Z,101747.47
2023-04-26T01:15:47.150Z,101752.69
2023-04-26T01:18:14.995Z,101744.81
2023-04-26T01:20:42.991Z,101747.50
2023-04-26T01:23:11.534Z,101744.53
2023-04-26T01:25:39.257Z,101748.91
2023-04-26T01:28:06.148Z,101758.59
2023-04-26T01:30:32.856Z,101750.22
2023-04-26T01:33:02.899Z,101749.41
2023-04-26T01:35:29.543Z,101751.56
2023-04-26T01:37:56.598Z,101757.84
2023-04-26T01:40:23.173Z,101755.59
2023-04-26T01:42:49.987Z,101745.22
2023-04-26T01:45:17.527Z,101747.81
2023-04-26T01:48:02.712Z,101743.97
2023-04-26T01:50:32.054Z,101741.63
2023-04-26T01:52:58.777Z,101744.53
2023-04-26T01:55:25.396Z,101744.28
2023-04-26T01:57:52.147Z,101733.13
2023-04-26T02:00:19.393Z,101743.66
2023-04-26T02:02:49.282Z,101744.03
2023-04-26T02:05:16.164Z,101740.78
2023-04-26T02:07:43.032Z,101749.34
2023-04-26T02:10:09.994Z,101755.19
2023-04-26T02:12:36.690Z,101745.03
2023-04-26T02:15:03.690Z,101743.66
2023-04-26T02:17:30.760Z,101751.69
2023-04-26T02:19:58.674Z,101739.34
2023-04-26T02:22:26.480Z,101747.09
2023-04-26T02:24:54.610Z,101749.53
2023-04-26T02:27:27.809Z,101742.97
2023-04-26T02:29:54.720Z,101739.53
2023-04-26T02:32:21.291Z,101738.94
2023-04-26T02:34:48.017Z,101737.56
2023-04-26T02:37:14.649Z,101740.53
2023-04-26T02:39:41.863Z,101737.63
2023-04-26T02:42:10.852Z,101731.38
2023-04-26T02:44:39.476Z,101741.03
2023-04-26T02:47:06.241Z,101732.84
2023-04-26T02:49:33.029Z,101736.00
2023-04-26T02:51:59.696Z,101730.81
2023-04-26T02:54:26.430Z,101719.50
2023-04-26T02:56:53.187Z,101726.69
2023-04-26T02:59:21.474Z,101726.88
2023-04-26T03:01:48.139Z,101734.66
2023-04-26T03:04:16.354Z,101728.91
2023-04-26T03:06:44.630Z,101722.84
2023-04-26T03:09:14.654Z,101721.19
2023-04-26T03:11:41.995Z,101729.47
2023-04-26T03:14:08.665Z,101725.72
2023-04-26T03:16:42.996Z,101721.97
2023-04-26T03:19:10.154Z,101717.72
2023-04-26T03:21:38.431Z,101716.31
2023-04-26T03:24:06.300Z,101719.78
2023-04-26T03:26:33.396Z,101719.84
2023-04-26T03:29:00.170Z,101721.50
2023-04-26T03:31:26.764Z,101726.03
2023-04-26T03:33:53.521Z,101718.16
2023-04-26T03:36:20.708Z,101716.66
2023-04-26T03:38:47.385Z,101713.72
2023-04-26T03:41:15.602Z,101711.63
2023-04-26T03:43:42.444Z,101707.50
2023-04-26T03:46:11.056Z,101710.41
2023-04-26T03:48:37.810Z,101721.34
2023-04-26T03:51:04.658Z,101725.25
2023-04-26T03:53:32.062Z,101719.38
2023-04-26T03:55:58.879Z,101729.50
2023-04-26T03:58:26.326Z,101721.13
2023-04-26T04:00:56.276Z,101715.22
2023-04-26T04:03:23.386Z,101714.78
2023-04-26T04:05:51.725Z,101715.47
2023-04-26T04:08:18.641Z,101720.41
2023-04-26T04:10:45.669Z,101713.59
2023-04-26T04:13:12.614Z,101716.88
2023-04-26T04:15:39.475Z,101710.28
2023-04-26T04:18:06.407Z,101710.81
2023-04-26T04:20:33.279Z,101715.06
2023-04-26T04:23:02.070Z,101711.88
2023-04-26T04:25:28.949Z,101720.78
2023-04-26T04:27:58.768Z,101720.16
2023-04-26T04:30:26.302Z,101719.09
2023-04-26T04:32:53.646Z,101727.00
2023-04-26T04:35:22.986Z,101728.25
2023-04-26T04:37:50.201Z,101734.28
2023-04-26T04:40:17.088Z,101736.44
2023-04-26T04:42:46.268Z,101740.38
2023-04-26T04:45:14.877Z,101731.06
2023-04-26T04:47:42.415Z,101737.81
2023-04-26T04:50:09.977Z,101744.75
2023-04-26T04:52:37.658Z,101740.59
2023-04-26T04:55:04.976Z,101732.31
2023-04-26T04:57:33.139Z,101732.88
2023-04-26T05:00:07.010Z,101734.56
2023-04-26T05:02:34.515Z,101728.81
2023-04-26T05:05:02.089Z,101728.56
2023-04-26T05:07:29.253Z,101736.03
2023-04-26T05:09:56.237Z,101726.56
2023-04-26T05:12:23.677Z,101730.72
2023-04-26T05:14:50.886Z,101735.16
2023-04-26T05:17:18.267Z,101732.00
2023-04-26T05:19:45.881Z,101734.44
2023-04-26T05:22:21.190Z,101737.13
2023-04-26T05:24:48.869Z,101745.91
2023-04-26T05:27:15.918Z,101740.94
2023-04-26T05:29:51.031Z,101736.75
2023-04-26T05:32:39.543Z,101731.34
2023-04-26T05:35:14.151Z,101740.81
2023-04-26T05:37:41.754Z,101733.59
2023-04-26T05:40:10.116Z,101732.22
2023-04-26T05:42:37.540Z,101730.75
2023-04-26T05:45:08.408Z,101731.66
2023-04-26T05:47:35.222Z,101731.69
2023-04-26T05:50:02.228Z,101738.25
2023-04-26T05:52:29.194Z,101737.81
2023-04-26T05:54:56.722Z,101738.34
2023-04-26T05:57:23.545Z,101742.00
2023-04-26T05:59:50.514Z,101748.63
2023-04-26T06:02:17.897Z,101750.13
2023-04-26T06:04:44.808Z,101746.84
2023-04-26T06:07:16.044Z,101756.59
2023-04-26T06:09:43.436Z,101758.81
2023-04-26T06:12:10.098Z,101754.69
2023-04-26T06:14:42.204Z,101749.84
2023-04-26T06:17:14.491Z,101752.78
2023-04-26T06:19:42.497Z,101759.06
2023-04-26T06:22:09.178Z,101766.88
2023-04-26T06:24:35.873Z,101763.69
2023-04-26T06:27:02.515Z,101768.00
2023-04-26T06:29:33.686Z,101769.16
2023-04-26T06:32:00.797Z,101766.78
2023-04-26T06:34:28.976Z,101775.56
2023-04-26T06:36:55.851Z,101775.59
2023-04-26T06:39:24.839Z,101785.44
2023-04-26T06:41:52.606Z,101770.78
2023-04-26T06:44:27.645Z,101774.91
2023-04-26T06:47:01.535Z,101774.50
2023-04-26T06:49:28.429Z,101771.81
2023-04-26T06:51:55.029Z,101772.84
2023-04-26T06:54:21.943Z,101770.06
2023-04-26T06:56:48.534Z,101769.91
2023-04-26T06:59:15.433Z,101771.94
2023-04-26T07:01:42.458Z,101768.56
2023-04-26T07:04:10.955Z,101771.34
2023-04-26T07:06:39.185Z,101773.97
2023-04-26T07:09:05.869Z,101778.56
2023-04-26T07:11:32.746Z,101779.44
2023-04-26T07:13:59.475Z,101786.38
2023-04-26T07:16:27.006Z,101779.91
2023-04-26T07:18:53.992Z,101773.63
2023-04-26T07:21:20.486Z,101775.94
2023-04-26T07:23:47.293Z,101779.91
2023-04-26T07:26:14.091Z,101778.66
2023-04-26T07:28:42.384Z,101769.69
2023-04-26T07:31:10.916Z,101771.78
2023-04-26T07:33:38.564Z,101764.94
2023-04-26T07:36:06.262Z,101765.88
2023-04-26T07:38:32.932Z,101767.34
2023-04-26T07:41:01.307Z,101773.94
2023-04-26T07:43:28.644Z,101773.50
2023-04-26T07:45:55.315Z,101777.72
2023-04-26T07:48:22.039Z,101777.78
2023-04-26T07:50:48.723Z,101783.00
2023-04-26T07:53:15.417Z,101774.75
2023-04-26T07:55:42.672Z,101773.28
2023-04-26T07:58:12.522Z,101779.25
2023-04-26T08:00:40.051Z,101778.41
2023-04-26T08:03:08.262Z,101778.47
2023-04-26T08:05:35.224Z,101786.38
2023-04-26T08:08:02.287Z,101800.06
2023-04-26T08:10:29.028Z,101792.31
2023-04-26T08:12:57.365Z,101787.06
2023-04-26T08:15:24.115Z,101792.75
2023-04-26T08:17:53.272Z,101790.44
2023-04-26T08:20:20.837Z,101784.63
2023-04-26T08:22:49.349Z,101784.63
2023-04-26T08:25:16.245Z,101790.16
2023-04-26T08:27:45.000Z,101784.44
2023-04-26T08:30:13.438Z,101779.94
2023-04-26T08:32:41.228Z,101786.84
2023-04-26T08:35:09.606Z,101781.50
2023-04-26T08:37:36.697Z,101779.09
2023-04-26T08:40:04.481Z,101779.94
2023-04-26T08:42:32.688Z,101780.97
2023-04-26T08:45:02.913Z,101777.16
2023-04-26T08:47:44.774Z,101776.75
2023-04-26T08:50:16.379Z,101780.59
2023-04-26T08:52:45.286Z,101781.44
2023-04-26T08:55:15.015Z,101779.91
2023-04-26T08:57:43.591Z,101765.44
2023-04-26T09:00:16.252Z,101764.50
2023-04-26T09:02:48.087Z,101768.22
2023-04-26T09:05:16.295Z,101763.03
2023-04-26T09:07:46.168Z,101766.72
2023-04-26T09:10:23.597Z,101766.75
2023-04-26T09:12:54.462Z,101759.91
2023-04-26T09:15:23.073Z,101764.31
2023-04-26T09:17:51.698Z,101765.09
2023-04-26T09:20:26.050Z,101765.59
2023-04-26T09:23:03.655Z,101761.59
2023-04-26T09:25:32.351Z,101769.25
2023-04-26T09:28:00.393Z,101753.97
2023-04-26T09:30:28.319Z,101768.63
2023-04-26T09:33:04.107Z,101769.16
2023-04-26T09:35:36.002Z,101770.38
2023-04-26T09:38:22.954Z,101771.06
2023-04-26T09:40:51.023Z,101773.16
2023-04-26T09:43:22.360Z,101771.88
2023-04-26T09:45:53.526Z,101774.28
2023-04-26T09:48:34.686Z,101762.69
2023-04-26T09:51:04.100Z,101777.59
2023-04-26T09:53:37.070Z,101776.44
2023-04-26T09:56:14.575Z,101783.16
2023-04-26T09:58:44.373Z,101772.16
2023-04-26T10:01:14.062Z,101770.44
2023-04-26T10:03:43.644Z,101774.00
2023-04-26T10:06:12.297Z,101779.94
2023-04-26T10:08:39.272Z,101769.97
2023-04-26T10:11:13.143Z,101775.50
2023-04-26T10:13:44.886Z,101766.94
2023-04-26T10:16:12.180Z,101768.66
2023-04-26T10:18:39.014Z,101763.78
2023-04-26T10:21:17.117Z,101769.41
2023-04-26T10:23:44.679Z,101767.09
2023-04-26T10:26:50.014Z,101764.41
2023-04-26T10:29:18.630Z,101762.56
2023-04-26T10:32:09.010Z,101759.94
2023-04-26T10:34:37.289Z,101758.06
2023-04-26T10:37:16.233Z,101761.34
2023-04-26T10:39:48.803Z,101756.47
2023-04-26T10:42:30.835Z,101766.28
2023-04-26T10:45:00.340Z,101756.06
2023-04-26T10:47:35.936Z,101759.06
2023-04-26T10:50:07.435Z,101752.38
2023-04-26T10:52:35.323Z,101751.16
2023-04-26T10:55:02.818Z,101744.47
2023-04-26T10:57:50.864Z,101745.91
2023-04-26T11:00:23.211Z,101742.00
2023-04-26T11:02:52.387Z,101742.34
2023-04-26T11:05:55.771Z,101743.47
2023-04-26T11:08:32.069Z,101735.59
2023-04-26T11:11:07.011Z,101742.75
2023-04-26T11:13:36.515Z,101738.47
2023-04-26T11:16:05.848Z,101726.66
2023-04-26T11:18:35.298Z,101717.41
2023-04-26T11:21:02.514Z,101719.09
2023-04-26T11:23:30.474Z,101720.25
2023-04-26T11:26:04.095Z,101716.22
2023-04-26T11:28:35.006Z,101708.69
2023-04-26T11:31:04.147Z,101711.84
2023-04-26T11:33:31.540Z,101708.81
2023-04-26T11:36:01.247Z,101706.69
2023-04-26T11:38:28.833Z,101711.56
2023-04-26T11:40:58.635Z,101711.13
2023-04-26T11:43:36.658Z,101711.50
2023-04-26T11:46:05.106Z,101719.31
2023-04-26T11:48:34.095Z,101723.41
2023-04-26T11:51:03.786Z,101718.47
2023-04-26T11:53:38.744Z,101722.00
2023-04-26T11:56:20.397Z,101714.81
2023-04-26T11:58:52.000Z,101722.75
2023-04-26T12:01:24.852Z,101727.31
2023-04-26T12:03:57.841Z,101723.66
2023-04-26T12:06:32.936Z,101722.81
2023-04-26T12:09:02.843Z,101726.81
2023-04-26T12:11:29.463Z,101726.81
2023-04-26T12:13:58.468Z,101721.00
2023-04-26T12:16:26.820Z,101713.75
2023-04-26T12:18:55.334Z,101713.59
2023-04-26T12:21:23.213Z,101719.00
2023-04-26T12:23:50.409Z,101724.81
2023-04-26T12:26:17.842Z,101729.31
2023-04-26T12:28:44.532Z,101729.88
2023-04-26T12:31:11.401Z,101715.63
2023-04-26T12:33:38.307Z,101711.06
2023-04-26T12:36:09.586Z,101708.75
2023-04-26T12:38:36.632Z,101714.41
2023-04-26T12:41:03.576Z,101713.38
2023-04-26T12:43:30.377Z,101720.34
2023-04-26T12:45:57.108Z,101720.28
2023-04-26T12:48:23.819Z,101705.88
2023-04-26T12:50:51.401Z,101716.66
2023-04-26T12:53:21.015Z,101716.97
2023-04-26T12:55:48.391Z,101715.34
2023-04-26T12:58:15.210Z,101721.66
2023-04-26T13:00:43.965Z,101720.84
2023-04-26T13:03:14.409Z,101717.19
2023-04-26T13:05:42.929Z,101717.81
2023-04-26T13:08:09.579Z,101723.28
2023-04-26T13:10:42.574Z,101715.94
2023-04-26T13:13:09.298Z,101718.59
2023-04-26T13:15:36.541Z,101711.63
2023-04-26T13:18:03.255Z,101710.38
2023-04-26T13:20:31.018Z,101722.09
2023-04-26T13:22:58.310Z,101717.81
2023-04-26T13:25:24.974Z,101715.91
2023-04-26T13:27:53.649Z,101722.78
2023-04-26T13:30:20.423Z,101728.00
2023-04-26T13:32:47.312Z,101713.13
2023-04-26T13:35:14.123Z,101714.66
2023-04-26T13:37:41.914Z,101716.81
2023-04-26T13:40:11.396Z,101720.56
2023-04-26T13:42:39.097Z,101719.25
2023-04-26T13:45:09.488Z,101720.09
2023-04-26T13:47:37.060Z,101712.75
2023-04-26T13:50:04.362Z,101709.25
2023-04-26T13:52:31.302Z,101715.53
2023-04-26T13:54:57.983Z,101716.63
2023-04-26T13:57:24.638Z,101716.94
2023-04-26T13:59:51.308Z,101713.09
2023-04-26T14:02:18.208Z,101710.22
2023-04-26T14:04:45.250Z,101707.97
2023-04-26T14:07:12.651Z,101714.00
2023-04-26T14:09:39.273Z,101705.66
2023-04-26T14:12:08.411Z,101703.72
2023-04-26T14:14:36.678Z,101710.25
2023-04-26T14:17:03.563Z,101711.34
2023-04-26T14:19:30.244Z,101711.22
2023-04-26T14:21:57.716Z,101715.44
2023-04-26T14:24:24.486Z,101714.25
2023-04-26T14:26:51.493Z,101715.06
2023-04-26T14:29:19.844Z,101709.56
2023-04-26T14:31:47.313Z,101711.59
2023-04-26T14:34:13.988Z,101710.47
2023-04-26T14:36:46.546Z,101704.06
2023-04-26T14:39:13.947Z,101696.88
2023-04-26T14:41:41.277Z,101709.09
2023-04-26T14:44:07.945Z,101710.75
2023-04-26T14:46:36.024Z,101710.06
2023-04-26T14:49:02.803Z,101698.59
2023-04-26T14:51:29.648Z,101703.66
2023-04-26T14:53:56.413Z,101700.81
2023-04-26T14:56:23.739Z,101708.44
2023-04-26T14:58:50.481Z,101705.97
2023-04-26T15:01:17.390Z,101700.00
2023-04-26T15:03:44.211Z,101696.88
2023-04-26T15:06:11.150Z,101699.41
2023-04-26T15:08:39.180Z,101691.66
2023-04-26T15:11:05.801Z,101692.53
2023-04-26T15:13:33.144Z,101683.00
2023-04-26T15:16:07.872Z,101677.38
2023-04-26T15:18:35.351Z,101681.25
2023-04-26T15:21:02.217Z,101683.25
2023-04-26T15:23:28.841Z,101682.78
2023-04-26T15:25:55.450Z,101688.09
2023-04-26T15:28:22.548Z,101673.25
2023-04-26T15:30:50.504Z,101678.78
2023-04-26T15:33:17.621Z,101674.94
2023-04-26T15:35:44.347Z,101680.44
2023-04-26T15:38:11.135Z,101677.97
2023-04-26T15:40:38.383Z,101679.84
2023-04-26T15:43:05.256Z,101669.19
2023-04-26T15:45:32.017Z,101679.56
2023-04-26T15:48:00.231Z,101670.97
2023-04-26T15:50:37.344Z,101672.81
2023-04-26T15:53:04.932Z,101670.91
2023-04-26T15:55:35.033Z,101670.69
2023-04-26T15:58:02.225Z,101668.00
2023-04-26T16:00:29.065Z,101666.91
2023-04-26T16:02:56.258Z,101674.56
2023-04-26T16:05:23.068Z,101673.72
2023-04-26T16:07:52.524Z,101676.16
2023-04-26T16:10:19.500Z,101688.81
2023-04-26T16:12:46.625Z,101685.66
2023-04-26T16:15:14.628Z,101683.47
2023-04-26T16:17:41.542Z,101688.69
2023-04-26T16:20:10.031Z,101678.22
2023-04-26T16:22:39.109Z,101683.47
2023-04-26T16:25:08.523Z,101677.34
2023-04-26T16:27:35.669Z,101670.63
2023-04-26T16:30:02.658Z,101676.47
2023-04-26T16:32:30.688Z,101674.13
2023-04-26T16:35:02.562Z,101673.00
2023-04-26T16:37:29.140Z,101663.88
2023-04-26T16:39:56.431Z,101669.34
2023-04-26T16:42:23.274Z,101661.81
2023-04-26T16:44:49.912Z,101671.72
2023-04-26T16:47:16.485Z,101674.78
2023-04-26T16:49:49.871Z,101667.63
2023-04-26T16:52:50.586Z,101665.19
2023-04-26T16:55:24.200Z,101671.97
2023-04-26T16:57:55.766Z,101662.91
2023-04-26T17:00:37.399Z,101674.69
2023-04-26T17:03:07.537Z,101675.63
2023-04-26T17:06:02.731Z,101685.22
2023-04-26T17:08:29.739Z,101690.69
2023-04-26T17:10:56.506Z,101676.81
2023-04-26T17:17:25.104Z,101683.47
2023-04-26T17:19:55.562Z,101678.84
2023-04-26T17:23:12.885Z,101684.41
2023-04-26T17:25:45.640Z,101666.34
2023-04-26T17:28:14.147Z,101680.41
2023-04-26T17:30:40.944Z,101690.03
2023-04-26T17:33:09.174Z,101692.78
2023-04-26T17:35:36.398Z,101686.34
2023-04-26T17:38:03.487Z,101682.97
2023-04-26T17:40:31.576Z,101687.94
2023-04-26T17:42:58.467Z,101681.94
2023-04-26T17:45:25.540Z,101686.75
2023-04-26T17:47:56.194Z,101681.25
2023-04-26T17:50:25.705Z,101686.88
2023-04-26T17:52:54.954Z,101696.16
2023-04-26T17:55:21.910Z,101693.44
2023-04-26T17:57:52.020Z,101703.84
2023-04-26T18:00:19.531Z,101698.16
2023-04-26T18:02:46.560Z,101705.94
2023-04-26T18:05:19.731Z,101702.97
2023-04-26T18:07:54.042Z,101707.38
2023-04-26T18:10:20.975Z,101709.75
2023-04-26T18:12:51.942Z,101706.41
2023-04-26T18:21:31.916Z,101713.69
2023-04-26T18:24:00.628Z,101706.53
2023-04-26T18:26:28.256Z,101709.16
2023-04-26T18:28:57.847Z,101705.38
2023-04-26T18:31:27.805Z,101723.19
2023-04-26T18:34:03.231Z,101708.97
2023-04-26T18:36:32.828Z,101718.50
2023-04-26T18:39:00.998Z,101717.31
2023-04-26T18:41:27.950Z,101731.16
2023-04-26T18:43:54.689Z,101731.81
2023-04-26T18:46:21.768Z,101729.16
2023-04-26T18:48:48.653Z,101735.25
2023-04-26T18:51:15.636Z,101734.13
2023-04-26T18:53:43.632Z,101734.16
2023-04-26T18:56:10.345Z,101729.38
2023-04-26T18:58:39.236Z,101730.19
2023-04-26T19:01:06.111Z,101735.91
2023-04-26T19:03:33.048Z,101744.22
2023-04-26T19:05:59.733Z,101748.97
2023-04-26T19:08:26.584Z,101748.81
2023-04-26T19:10:53.344Z,101748.16
2023-04-26T19:13:20.546Z,101753.78
2023-04-26T19:15:47.704Z,101754.94
2023-04-26T19:18:14.328Z,101755.09
2023-04-26T19:20:41.271Z,101762.97
2023-04-26T19:23:07.861Z,101769.50
2023-04-26T19:25:34.757Z,101766.06
2023-04-26T19:28:01.650Z,101767.56
2023-04-26T19:30:31.606Z,101769.53
2023-04-26T19:32:58.162Z,101766.25
2023-04-26T19:35:24.970Z,101758.53
2023-04-26T19:37:51.823Z,101763.47
2023-04-26T19:40:18.683Z,101773.78
2023-04-26T19:42:45.294Z,101767.06
2023-04-26T19:45:11.940Z,101765.25
2023-04-26T19:47:41.140Z,101773.78
2023-04-26T19:50:08.247Z,101772.47
2023-04-26T19:52:35.114Z,101773.91
2023-04-26T19:55:01.986Z,101779.31
2023-04-26T19:57:28.644Z,101775.06
2023-04-26T19:59:55.732Z,101780.31
2023-04-26T20:02:22.319Z,101772.78
2023-04-26T20:04:49.016Z,101777.03
2023-04-26T20:07:15.947Z,101775.38
2023-04-26T20:09:42.750Z,101770.50
2023-04-26T20:12:09.626Z,101779.81
2023-04-26T20:14:37.384Z,101773.19
2023-04-26T20:17:04.291Z,101784.94
2023-04-26T20:19:30.998Z,101778.97
2023-04-26T20:21:59.984Z,101779.81
2023-04-26T20:24:29.408Z,101783.47
2023-04-26T20:26:56.836Z,101779.34
2023-04-26T20:29:24.047Z,101779.44
2023-04-26T20:31:51.296Z,101775.16
2023-04-26T20:34:18.239Z,101779.78
2023-04-26T20:36:44.826Z,101782.28
2023-04-26T20:39:13.604Z,101782.22
2023-04-26T20:41:42.465Z,101778.91
2023-04-26T20:44:09.400Z,101777.22
2023-04-26T20:46:38.308Z,101770.06
2023-04-26T20:49:06.631Z,101777.38
2023-04-26T20:51:36.632Z,101787.63
2023-04-26T20:54:03.565Z,101785.78
2023-04-26T20:56:31.728Z,101797.59
2023-04-26T20:58:58.381Z,101789.03
2023-04-26T21:01:27.310Z,101789.03
2023-04-26T21:03:54.304Z,101795.59
2023-04-26T21:06:22.578Z,101793.63
2023-04-26T21:08:49.172Z,101801.91
2023-04-26T21:11:16.710Z,101798.84
2023-04-26T21:13:48.097Z,101796.63
2023-04-26T21:16:16.444Z,101793.28
2023-04-26T21:18:43.045Z,101793.72
2023-04-26T21:21:09.897Z,101799.84
2023-04-26T21:23:36.623Z,101794.72
2023-04-26T21:26:03.540Z,101805.50
2023-04-26T21:28:30.237Z,101804.25
2023-04-26T21:31:04.795Z,101813.22
2023-04-26T21:33:32.283Z,101805.19
2023-04-26T21:36:00.454Z,101798.59
2023-04-26T21:38:27.675Z,101805.19
2023-04-26T21:40:54.336Z,101796.84
2023-04-26T21:43:23.578Z,101791.13
2023-04-26T21:45:52.384Z,101796.50
2023-04-26T21:48:24.323Z,101796.06
2023-04-26T21:50:51.174Z,101801.19
2023-04-26T21:53:18.693Z,101798.09
2023-04-26T21:55:52.675Z,101798.72
2023-04-26T21:58:23.174Z,101801.72
2023-04-26T22:00:53.254Z,101802.09
2023-04-26T22:03:20.257Z,101802.28
2023-04-26T22:05:48.904Z,101808.00
2023-04-26T22:08:15.500Z,101802.03
2023-04-26T22:10:44.497Z,101798.72
2023-04-26T22:13:11.817Z,101801.56
2023-04-26T22:15:39.102Z,101805.91
2023-04-26T22:18:05.813Z,101803.25
2023-04-26T22:20:34.951Z,101807.09
2023-04-26T22:23:04.004Z,101801.50
2023-04-26T22:25:31.534Z,101791.28
2023-04-26T22:27:58.254Z,101805.91
2023-04-26T22:30:26.143Z,101807.88
2023-04-26T22:32:58.404Z,101803.31
2023-04-26T22:35:26.882Z,101808.13
2023-04-26T22:37:54.010Z,101817.84
2023-04-26T22:40:20.991Z,101816.13
2023-04-26T22:42:47.649Z,101819.13
2023-04-26T22:45:14.570Z,101816.69
2023-04-26T22:47:44.588Z,101821.59
2023-04-26T22:50:14.109Z,101827.38
2023-04-26T22:52:43.247Z,101806.31
2023-04-26T22:55:10.266Z,101810.72
2023-04-26T22:57:37.533Z,101819.34
2023-04-26T23:00:06.348Z,101818.38
2023-04-26T23:02:33.059Z,101829.06
2023-04-26T23:05:00.073Z,101828.09
2023-04-26T23:07:26.964Z,101834.09
2023-04-26T23:09:56.229Z,101833.75
2023-04-26T23:12:23.772Z,101837.81
2023-04-26T23:14:50.565Z,101831.81
2023-04-26T23:17:20.301Z,101842.22
2023-04-26T23:19:47.478Z,101848.94
2023-04-26T23:22:15.584Z,101842.47
2023-04-26T23:24:42.133Z,101852.06
2023-04-26T23:27:08.902Z,101855.38
2023-04-26T23:29:35.621Z,101854.56
2023-04-26T23:32:03.516Z,101864.25
2023-04-26T23:34:31.672Z,101870.69
2023-04-26T23:36:58.881Z,101864.41
2023-04-26T23:39:35.975Z,101859.72
2023-04-26T23:42:03.751Z,101853.16
2023-04-26T23:44:30.508Z,101855.31
2023-04-26T23:46:57.260Z,101861.19
2023-04-26T23:49:24.404Z,101864.31
2023-04-26T23:51:51.205Z,101857.63
2023-04-26T23:54:17.954Z,101862.09
2023-04-26T23:56:44.469Z,101864.84
2023-04-26T23:59:11.351Z,101868.13
